Airfield :
LOGIN :

Register | Disclaimer

   EN    FR    IT 

 










Legend :    VFR   Marginal VFR   IFR   Intensive IFR   Very Intensive IFR
Visi :
Ceiling :
>= 8 km
>= 3000ft
5 to 8 km
1000 to 3000 ft
1500m to 5 km
500 to 1000 ft
800 to 1500m
200 to 500 ft
< 800m
< 200 ft
Symbols :   Thunderstorms  Fog  Heavy snow  Heavy precipitations  Wind > 20 kt
SIGMETs :     Misc.  Thunderstorms  Icing  Turbulence  Mountain Waves  Volcanic Ashes






- Airport Elevation : 364 ft


LFAQ - Albert Bray

CURRENT METAR :
  • 280900Z AUTO 32013KT 8000 -SN BKN009/// BKN015/// BKN023/// ///CB 01/01 Q1000 TEMPO 1200 SNRA BECMG 32015G25KT

EXPIRED METARs :
  • 280830Z AUTO 33015KT 9999 -RA FEW010/// SCT019/// BKN024/// ///CB 03/02 Q1000 TEMPO 1200 SNRA BKN007 BKN025CB BECMG 32016G28KT
  • 280800Z AUTO 32014KT 9999 RA FEW009/// BKN024/// BKN044/// ///CB 03/02 Q0999 TEMPO 1200 SNRA BKN007 BKN025CB BECMG 32016G28KT
  • 280730Z AUTO 31010KT 9999 SCT009/// BKN013/// BKN018/// ///TCU 02/01 Q0999 TEMPO 1200 SNRA BKN007 BKN025CB BECMG 32016G28KT
  • 280700Z AUTO 32016KT 9999 RA BKN011/// BKN024/// OVC031/// ///CB 03/02 Q0999 TEMPO 1200 SNRA BKN007 BKN025CB BECMG 32016G28KT
  • 280630Z AUTO 32014KT 9999 -RA FEW012/// SCT018/// BKN024/// ///CB 03/02 Q0998 TEMPO 1200 SNRA BKN007 BKN025CB BECMG 32016G28KT

TAF TAF LFAQ
Valid from the 28 at 09:00 until the 28 at 18:00 UTC


280800Z 2809/2818 32015G25KT 9999 SCT013 BKN025
TEMPO 2809/2815 3000 RA BKN007 BKN025CB
PROB40 2809/2818 1200 SNRA



MET'MAP, your aeronautical weather chart ! - Copyright ORBIFLY December 2007 - Disclaimer

ORBIFLY MET'MAP TEAM :

Programming & Development : Alexandra Zaïnal
Concept & original design : Baudouin d'Aumeries
Assistance for programming : Marc-Olivier Méhu
Technical & hardware support : Manuel Goepfert

Contact : metmap@orbifly.com




SOURCES & CREDITS :

   NOAA